Britton, Michigan
Current Conditions -  °F | °C
As of 11:53 AM on Wednesday 22 Oct 2014 (Local Time) from KADG Reporting Station
Overcast Overcast  
Wind Chill: 39°   Ceiling: 1500
Heat Index: 45°   Visibility: 10mi
Dew Point: 38°   Wind: 12mph
Humidity: 76%   Direction: 20°NNE
Pressure: 30.35"   Gusts: NA
Location:  41.99°N, 83.83°W
Report Text: KADG 221553Z AUTO 02010KT 10SM OVC015 07/03 A3035 RMK AO2 SLP286 T00720033
Loading
Personal Weather Stations






























Interactive Weather Map
Tropical Storm Tracking
New forecast layout! Learn more

10-Day Weather Forecast

Advertisements
Track Severe Weather on mobile